Time;durP1;ratioP1;P1;durP2;ratioP2;P2;SDS_P1;SDS_P2;PMS_P1;PMS_P2;Temp;Humidity;BMP_temperature;BMP_pressure;BME280_temperature;BME280_humidity;BME280_pressure;Samples;Min_cycle;Max_cycle;Signal;HPM_P1;HPM_P2
2021/06/11 00:00:47;;;;;;;6.60;5.95;;;15.40;99.90;;;;;;5089901;28;20700;-89
2021/06/11 00:03:14;;;;;;;6.35;5.75;;;15.30;99.90;;;;;;5096987;28;20196;-90
2021/06/11 00:05:42;;;;;;;6.55;5.97;;;15.30;99.90;;;;;;5081996;28;20625;-90
2021/06/11 00:08:09;;;;;;;6.38;5.78;;;15.30;99.90;;;;;;5092807;28;20227;-89
2021/06/11 00:10:36;;;;;;;6.47;5.40;;;15.30;99.90;;;;;;5080836;28;20288;-90
2021/06/11 00:13:03;;;;;;;6.13;5.53;;;15.30;99.90;;;;;;5088229;28;20208;-90
2021/06/11 00:15:30;;;;;;;6.47;5.88;;;15.20;99.90;;;;;;5085853;28;20694;-91
2021/06/11 00:17:57;;;;;;;6.20;5.60;;;15.20;99.90;;;;;;5087809;28;20201;-90
2021/06/11 00:20:24;;;;;;;6.90;6.00;;;15.10;99.90;;;;;;5083780;28;20197;-90
2021/06/11 00:22:52;;;;;;;6.10;5.50;;;15.10;99.90;;;;;;5090764;28;20203;-90
2021/06/11 00:25:22;;;;;;;6.85;6.25;;;15.10;99.90;;;;;;5079727;28;20228;-91
2021/06/11 00:27:48;;;;;;;6.03;5.53;;;15.10;99.90;;;;;;5092141;28;20203;-91
2021/06/11 00:30:17;;;;;;;7.07;5.63;;;15.00;99.90;;;;;;5087220;28;20203;-91
2021/06/11 00:32:43;;;;;;;6.65;6.00;;;15.10;99.90;;;;;;5087991;28;20197;-90
2021/06/11 00:35:11;;;;;;;7.07;5.55;;;15.10;99.90;;;;;;5087397;28;20209;-88
2021/06/11 00:37:38;;;;;;;6.78;6.07;;;15.20;99.90;;;;;;5095061;28;20201;-90
2021/06/11 00:40:09;;;;;;;8.52;5.82;;;15.20;99.90;;;;;;5093312;28;20197;-89
2021/06/11 00:42:36;;;;;;;6.43;5.82;;;15.10;99.90;;;;;;5096010;28;20209;-90
2021/06/11 00:45:03;;;;;;;6.72;6.03;;;15.20;99.90;;;;;;5106774;28;20230;-89
2021/06/11 00:47:29;;;;;;;6.15;5.65;;;15.10;99.90;;;;;;5098978;28;20281;-89
2021/06/11 00:49:56;;;;;;;6.70;5.95;;;14.90;99.90;;;;;;5091646;28;20280;-89
2021/06/11 00:52:23;;;;;;;6.93;6.32;;;14.80;99.90;;;;;;5090963;28;20235;-89
2021/06/11 00:54:50;;;;;;;7.35;6.28;;;14.80;99.90;;;;;;5101595;28;20224;-88
2021/06/11 00:57:18;;;;;;;7.72;5.97;;;14.80;99.90;;;;;;5101846;28;20686;-90
2021/06/11 00:59:44;;;;;;;6.65;5.97;;;14.80;99.90;;;;;;5096702;28;20200;-90
2021/06/11 01:02:11;;;;;;;6.32;5.72;;;14.80;99.90;;;;;;5099009;28;20216;-89
2021/06/11 01:04:56;;;;;;;6.97;6.38;;;14.90;99.90;;;;;;5093239;28;20238;-89
2021/06/11 01:07:24;;;;;;;7.25;6.35;;;15.00;99.90;;;;;;5101488;28;20590;-89
2021/06/11 01:09:53;;;;;;;7.32;5.93;;;15.10;99.90;;;;;;5090917;28;20560;-89
2021/06/11 01:12:22;;;;;;;7.22;5.70;;;15.10;99.90;;;;;;5084823;28;20266;-89
2021/06/11 01:14:48;;;;;;;6.93;6.10;;;15.10;99.90;;;;;;5094239;28;20562;-89
2021/06/11 01:17:15;;;;;;;6.80;6.20;;;15.00;99.90;;;;;;5094996;28;20234;-90
2021/06/11 01:19:46;;;;;;;6.43;5.82;;;15.00;99.90;;;;;;5081304;28;20666;-90
2021/06/11 01:22:17;;;;;;;6.40;5.90;;;15.10;99.90;;;;;;5093217;28;20223;-90
2021/06/11 01:24:55;;;;;;;6.78;6.18;;;15.20;99.90;;;;;;5094877;28;20217;-89
2021/06/11 01:27:23;;;;;;;8.07;6.38;;;15.20;99.90;;;;;;5095833;28;20234;-89
2021/06/11 01:29:56;;;;;;;7.55;6.80;;;15.20;99.90;;;;;;5089082;28;20210;-90
2021/06/11 01:32:24;;;;;;;7.28;5.97;;;15.10;99.90;;;;;;5091297;28;20883;-90
2021/06/11 01:34:53;;;;;;;7.68;5.93;;;15.20;99.90;;;;;;5087037;28;20197;-90
2021/06/11 01:37:22;;;;;;;6.38;5.78;;;15.30;99.90;;;;;;5090390;28;20224;-90
2021/06/11 01:39:51;;;;;;;7.45;6.10;;;15.30;99.90;;;;;;5091958;28;20200;-90
2021/06/11 01:42:19;;;;;;;6.80;6.05;;;15.10;99.90;;;;;;5089068;28;20737;-90
2021/06/11 01:44:48;;;;;;;6.65;5.88;;;15.10;99.90;;;;;;5092339;28;20225;-90
2021/06/11 01:47:14;;;;;;;6.90;5.80;;;15.30;99.90;;;;;;5081133;28;20217;-90
2021/06/11 01:49:43;;;;;;;7.50;6.40;;;15.30;99.90;;;;;;5084269;28;20223;-89
2021/06/11 01:52:11;;;;;;;7.57;6.43;;;15.40;99.90;;;;;;5081696;28;20224;-91
2021/06/11 01:54:39;;;;;;;6.68;6.10;;;15.40;99.90;;;;;;5083770;28;20224;-90
2021/06/11 01:57:07;;;;;;;10.60;6.47;;;15.40;99.90;;;;;;5078294;28;20277;-91
2021/06/11 01:59:34;;;;;;;8.52;6.63;;;15.30;99.90;;;;;;5091057;28;20192;-91
2021/06/11 02:02:10;;;;;;;6.70;6.10;;;15.30;99.90;;;;;;5074174;28;20251;-90
2021/06/11 02:04:37;;;;;;;7.32;6.03;;;15.20;99.90;;;;;;5074110;28;20219;-90
2021/06/11 02:07:07;;;;;;;6.78;6.13;;;15.30;99.90;;;;;;5085461;28;20250;-90
2021/06/11 02:09:34;;;;;;;6.93;6.32;;;15.30;99.90;;;;;;5096559;28;20585;-89
2021/06/11 02:12:01;;;;;;;6.95;6.40;;;15.30;99.90;;;;;;5096852;28;20224;-90
2021/06/11 02:14:28;;;;;;;6.38;5.88;;;15.30;99.90;;;;;;5088617;28;20652;-90
2021/06/11 02:16:57;;;;;;;6.82;6.22;;;15.40;99.90;;;;;;5094322;28;20323;-90
2021/06/11 02:19:25;;;;;;;6.80;6.20;;;15.50;99.90;;;;;;5083251;28;20197;-90
2021/06/11 02:21:52;;;;;;;6.68;5.97;;;15.40;99.90;;;;;;5096994;28;20280;-90
2021/06/11 02:24:19;;;;;;;6.93;6.22;;;15.30;99.90;;;;;;5097859;28;20365;-90
2021/06/11 02:26:47;;;;;;;7.20;5.97;;;15.30;99.90;;;;;;5098031;28;20235;-90
2021/06/11 02:29:13;;;;;;;6.50;5.90;;;15.40;99.90;;;;;;5099232;28;20196;-89
2021/06/11 02:31:40;;;;;;;7.30;6.60;;;15.40;99.90;;;;;;5092763;28;20232;-89
2021/06/11 02:34:07;;;;;;;6.53;5.93;;;15.40;99.90;;;;;;5098529;28;20219;-89
2021/06/11 02:37:04;;;;;;;7.05;6.15;;;15.30;99.90;;;;;;5098397;28;20252;-89
2021/06/11 02:39:38;;;;;;;6.75;5.95;;;15.30;99.90;;;;;;5105649;28;20200;-89
2021/06/11 02:42:08;;;;;;;6.95;6.35;;;15.30;99.90;;;;;;5095665;27;20223;-89
2021/06/11 02:44:39;;;;;;;7.32;6.03;;;15.20;99.90;;;;;;5084721;28;20225;-90
2021/06/11 02:47:12;;;;;;;7.68;6.10;;;15.10;99.90;;;;;;5087912;28;20213;-90
2021/06/11 02:49:48;;;;;;;7.60;5.90;;;15.10;99.90;;;;;;5095420;28;20207;-89
2021/06/11 02:52:21;;;;;;;7.15;6.20;;;15.30;99.90;;;;;;5089844;28;20220;-89
2021/06/11 02:54:48;;;;;;;6.30;5.40;;;15.20;99.90;;;;;;5092160;28;20216;-90
2021/06/11 02:57:20;;;;;;;7.75;6.28;;;15.20;99.90;;;;;;5093990;28;20224;-90
2021/06/11 02:59:49;;;;;;;6.75;6.15;;;15.10;99.90;;;;;;5094936;28;20193;-90
2021/06/11 03:02:20;;;;;;;6.97;6.38;;;15.00;99.90;;;;;;5095654;28;20224;-90
2021/06/11 03:04:49;;;;;;;7.15;6.45;;;14.80;99.90;;;;;;5085298;28;20613;-90
2021/06/11 03:07:24;;;;;;;6.97;5.97;;;14.80;99.90;;;;;;5093554;28;20224;-89
2021/06/11 03:09:51;;;;;;;6.80;6.20;;;14.80;99.90;;;;;;5090077;28;20244;-90
2021/06/11 03:12:18;;;;;;;7.10;6.43;;;14.70;99.90;;;;;;5087266;28;20220;-90
2021/06/11 03:14:45;;;;;;;6.95;6.10;;;14.70;99.90;;;;;;5086370;28;20672;-89
2021/06/11 03:17:12;;;;;;;6.95;6.30;;;14.70;99.90;;;;;;5095797;28;20766;-89
2021/06/11 03:19:41;;;;;;;6.68;6.07;;;14.70;99.90;;;;;;5087985;28;20203;-89
2021/06/11 03:22:12;;;;;;;6.32;5.72;;;14.60;99.90;;;;;;5094921;28;20589;-90
2021/06/11 03:24:50;;;;;;;8.95;6.13;;;14.60;99.90;;;;;;5090309;28;20726;-89
2021/06/11 03:27:21;;;;;;;7.20;5.85;;;14.60;99.90;;;;;;5096832;28;20244;-90
2021/06/11 03:29:51;;;;;;;6.15;5.65;;;14.70;99.90;;;;;;5091203;28;20647;-89
2021/06/11 03:32:22;;;;;;;10.93;6.18;;;14.80;99.90;;;;;;5092167;28;20232;-88
2021/06/11 03:34:50;;;;;;;6.75;6.00;;;14.80;99.90;;;;;;5093171;28;20203;-89
2021/06/11 03:37:18;;;;;;;6.90;5.93;;;14.70;99.90;;;;;;5099537;28;20232;-89
2021/06/11 03:39:50;;;;;;;6.32;5.72;;;14.60;99.90;;;;;;5101922;28;20262;-89
2021/06/11 03:42:17;;;;;;;6.57;5.97;;;14.60;99.90;;;;;;5079678;28;20308;-89
2021/06/11 03:44:47;;;;;;;7.10;6.22;;;14.70;99.90;;;;;;5093996;28;20228;-91
2021/06/11 03:47:16;;;;;;;6.32;5.82;;;14.80;99.90;;;;;;5084314;28;20570;-89
2021/06/11 03:49:44;;;;;;;6.63;5.53;;;14.90;99.90;;;;;;5098629;28;20200;-89
2021/06/11 03:52:12;;;;;;;6.40;5.80;;;14.90;99.90;;;;;;5088800;28;20221;-89
2021/06/11 03:54:42;;;;;;;6.60;5.82;;;15.00;99.90;;;;;;5099761;28;20868;-89
2021/06/11 03:57:10;;;;;;;6.50;5.70;;;15.10;99.90;;;;;;5100406;28;20358;-89
2021/06/11 03:59:39;;;;;;;6.47;5.88;;;15.10;99.90;;;;;;5100304;28;20204;-89
2021/06/11 04:02:06;;;;;;;7.75;6.47;;;15.20;99.90;;;;;;5093071;28;20227;-89
2021/06/11 04:04:34;;;;;;;5.85;5.45;;;15.10;99.90;;;;;;5094294;28;20586;-89
2021/06/11 04:07:23;;;;;;;6.00;5.50;;;15.20;99.90;;;;;;5099167;28;20228;-90
2021/06/11 04:09:51;;;;;;;5.82;5.32;;;15.20;99.90;;;;;;5093423;28;20284;-89
2021/06/11 04:12:22;;;;;;;7.55;5.60;;;15.30;99.90;;;;;;5098249;28;20220;-89
2021/06/11 04:15:16;;;;;;;5.90;5.30;;;15.40;99.90;;;;;;5084177;28;20201;-90
2021/06/11 04:17:47;;;;;;;6.68;6.10;;;15.40;99.90;;;;;;5082040;28;20237;-89
2021/06/11 04:20:19;;;;;;;8.02;5.35;;;15.40;99.90;;;;;;5078753;28;20181;-90
2021/06/11 04:22:50;;;;;;;6.72;5.32;;;15.40;99.90;;;;;;5084083;28;20193;-90
2021/06/11 04:25:18;;;;;;;6.55;5.53;;;15.40;99.90;;;;;;5083987;28;20286;-89
2021/06/11 04:27:50;;;;;;;5.82;5.32;;;15.60;99.90;;;;;;5084788;28;20557;-90
2021/06/11 04:30:18;;;;;;;6.10;5.60;;;15.60;99.90;;;;;;5089764;28;20207;-90
2021/06/11 04:32:44;;;;;;;5.60;5.10;;;15.60;99.90;;;;;;5096827;28;20211;-89
2021/06/11 04:35:12;;;;;;;8.02;5.20;;;15.80;99.90;;;;;;5098122;28;20188;-90
2021/06/11 04:37:38;;;;;;;6.75;5.30;;;15.90;99.60;;;;;;5093564;28;20205;-92
2021/06/11 04:40:08;;;;;;;6.13;5.53;;;16.00;99.20;;;;;;5094167;28;20204;-92
2021/06/11 04:45:41;;;;;;;7.68;5.38;;;16.00;98.90;;;;;;5097113;28;20235;-90
2021/06/11 04:48:08;;;;;;;5.65;5.15;;;16.00;99.00;;;;;;5114701;28;20263;-92
2021/06/11 04:50:34;;;;;;;5.25;4.75;;;16.10;99.10;;;;;;5120445;28;20231;-91
2021/06/11 04:53:10;;;;;;;6.15;5.60;;;16.00;99.00;;;;;;5089949;28;20259;-92
2021/06/11 04:55:38;;;;;;;6.13;5.53;;;15.90;99.20;;;;;;5096212;28;20203;-92
2021/06/11 04:58:06;;;;;;;5.70;5.20;;;15.90;99.20;;;;;;5100690;28;20205;-91
2021/06/11 05:00:32;;;;;;;7.20;5.60;;;15.90;99.30;;;;;;5099467;28;20219;-91
2021/06/11 05:02:58;;;;;;;5.65;5.10;;;15.90;99.20;;;;;;5092075;28;20250;-90
2021/06/11 05:08:06;;;;;;;5.60;5.10;;;16.00;99.00;;;;;;5094671;28;20208;-93
2021/06/11 05:10:32;;;;;;;5.70;5.15;;;15.90;98.80;;;;;;5081079;28;20239;-93
2021/06/11 05:12:59;;;;;;;5.85;5.35;;;15.90;99.20;;;;;;5090020;28;20196;-93
2021/06/11 05:15:27;;;;;;;6.38;5.63;;;15.80;99.70;;;;;;5090176;28;20207;-90
2021/06/11 05:18:03;;;;;;;5.38;4.93;;;15.90;99.70;;;;;;5087328;28;20208;-89
2021/06/11 05:20:29;;;;;;;5.93;5.40;;;16.00;99.40;;;;;;5088925;28;20563;-91
2021/06/11 05:22:56;;;;;;;6.30;5.70;;;16.10;99.00;;;;;;5083044;28;20251;-92
2021/06/11 05:25:22;;;;;;;5.90;5.28;;;16.10;98.80;;;;;;5084849;28;20702;-91
2021/06/11 05:27:49;;;;;;;6.88;5.50;;;16.20;99.00;;;;;;5099543;28;20416;-91
2021/06/11 05:38:31;;;;;;;6.10;5.60;;;16.60;97.60;;;;;;5073049;28;20204;-92
2021/06/11 05:41:00;;;;;;;6.03;5.38;;;16.60;97.80;;;;;;5088825;28;20235;-91
2021/06/11 05:43:26;;;;;;;5.70;5.20;;;16.60;97.70;;;;;;5071300;28;20215;-93
2021/06/11 05:45:55;;;;;;;7.35;6.00;;;16.70;97.90;;;;;;5093946;28;20232;-90
2021/06/11 05:48:24;;;;;;;7.03;5.85;;;16.80;97.70;;;;;;5101421;28;20231;-91
2021/06/11 05:50:50;;;;;;;6.75;6.05;;;16.90;97.40;;;;;;5094949;28;20280;-90
2021/06/11 05:53:22;;;;;;;6.18;5.68;;;17.00;97.40;;;;;;5086817;28;20220;-90
2021/06/11 05:55:48;;;;;;;7.65;5.70;;;17.00;97.00;;;;;;5087327;28;20297;-91
2021/06/11 05:58:15;;;;;;;7.88;5.70;;;17.10;96.90;;;;;;5092452;28;20591;-92
2021/06/11 06:00:41;;;;;;;6.65;5.80;;;17.30;96.70;;;;;;5088776;28;20228;-91
2021/06/11 06:03:08;;;;;;;6.55;6.00;;;17.30;96.20;;;;;;5098928;28;20695;-90
2021/06/11 06:05:36;;;;;;;6.47;5.93;;;17.30;96.00;;;;;;5094269;28;20231;-91
2021/06/11 06:08:02;;;;;;;7.10;6.45;;;17.40;96.10;;;;;;5088427;28;20200;-91
2021/06/11 06:10:29;;;;;;;6.78;6.03;;;17.40;95.30;;;;;;5085333;28;20196;-91
2021/06/11 06:12:55;;;;;;;7.22;6.47;;;17.50;95.10;;;;;;5079844;28;20200;-91
2021/06/11 06:15:24;;;;;;;6.57;5.97;;;17.60;94.90;;;;;;5076714;28;20223;-91
2021/06/11 06:17:53;;;;;;;7.45;5.90;;;17.60;94.80;;;;;;5092043;28;20201;-90
2021/06/11 06:21:10;;;;;;;7.50;6.70;;;17.80;94.60;;;;;;5090883;28;20206;-90
2021/06/11 06:23:38;;;;;;;7.43;6.70;;;18.00;93.10;;;;;;5001271;28;20687;-90
2021/06/11 06:26:05;;;;;;;6.68;6.07;;;18.00;92.20;;;;;;5088124;28;20228;-92
2021/06/11 06:28:32;;;;;;;7.28;6.45;;;18.00;92.20;;;;;;5086311;28;20200;-92
2021/06/11 06:30:59;;;;;;;7.45;6.80;;;18.10;92.20;;;;;;5082095;28;20638;-92
2021/06/11 06:33:26;;;;;;;7.28;6.13;;;18.20;91.90;;;;;;5079107;28;20247;-91
2021/06/11 06:35:58;;;;;;;6.82;6.22;;;18.20;91.90;;;;;;5091035;28;20285;-92
2021/06/11 06:38:25;;;;;;;6.93;6.28;;;18.30;92.00;;;;;;5082637;28;20204;-90
2021/06/11 06:40:59;;;;;;;6.70;5.40;;;18.30;92.20;;;;;;5083465;28;20227;-92
2021/06/11 06:43:26;;;;;;;6.38;5.85;;;18.40;90.90;;;;;;5082149;28;21868;-90
2021/06/11 06:45:52;;;;;;;5.75;5.25;;;18.40;91.20;;;;;;5078983;28;20242;-91
2021/06/11 06:48:20;;;;;;;6.65;6.05;;;18.50;91.10;;;;;;5088415;28;20201;-91
2021/06/11 06:50:47;;;;;;;7.38;6.28;;;18.50;90.60;;;;;;5089395;28;20220;-90
2021/06/11 06:53:13;;;;;;;7.13;6.43;;;18.50;90.00;;;;;;5087502;28;20217;-89
2021/06/11 06:55:40;;;;;;;6.05;5.55;;;18.60;87.60;;;;;;5085158;28;20223;-92
2021/06/11 06:58:07;;;;;;;6.50;5.90;;;18.70;84.20;;;;;;5088461;28;20652;-90
2021/06/11 07:00:34;;;;;;;7.15;5.72;;;18.70;84.80;;;;;;5083622;28;20269;-93
2021/06/11 07:05:51;;;;;;;6.70;5.78;;;18.80;86.70;;;;;;5076937;28;20293;-93
2021/06/11 07:08:18;;;;;;;6.57;5.90;;;19.20;85.80;;;;;;5094250;28;20201;-92
2021/06/11 07:10:45;;;;;;;5.95;5.45;;;19.70;82.10;;;;;;5091458;28;20228;-88
2021/06/11 07:13:14;;;;;;;5.97;4.57;;;21.20;76.10;;;;;;5094885;28;20201;-89
2021/06/11 07:15:40;;;;;;;6.38;4.50;;;24.10;58.80;;;;;;5080467;28;20217;-90
2021/06/11 07:18:15;;;;;;;5.68;5.00;;;27.20;40.00;;;;;;5091622;28;20192;-90
2021/06/11 07:20:41;;;;;;;8.05;5.38;;;29.00;33.20;;;;;;5097553;28;20223;-91
2021/06/11 07:23:08;;;;;;;6.25;5.63;;;28.30;32.20;;;;;;5103317;28;20663;-89
2021/06/11 07:25:34;;;;;;;5.65;5.03;;;27.80;35.40;;;;;;5095342;28;20214;-89
2021/06/11 07:28:01;;;;;;;6.15;5.63;;;26.40;37.10;;;;;;5079178;28;20608;-87
2021/06/11 07:30:29;;;;;;;8.15;5.20;;;24.80;41.60;;;;;;5088694;28;20241;-90
2021/06/11 07:32:55;;;;;;;6.07;5.10;;;24.00;45.20;;;;;;5087859;28;20208;-91
2021/06/11 07:35:21;;;;;;;7.68;5.63;;;22.60;50.10;;;;;;5084148;28;20268;-90
2021/06/11 07:37:49;;;;;;;11.82;5.38;;;22.20;56.80;;;;;;5088671;28;20204;-89
2021/06/11 07:40:17;;;;;;;8.98;5.68;;;21.90;55.90;;;;;;5095564;28;20250;-89
2021/06/11 07:42:44;;;;;;;5.45;4.93;;;21.40;57.20;;;;;;5095092;28;20201;-90
2021/06/11 07:45:37;;;;;;;6.25;4.85;;;21.30;58.50;;;;;;5095475;28;20234;-90
2021/06/11 07:48:04;;;;;;;6.75;5.30;;;21.30;57.10;;;;;;5095472;28;20217;-90
2021/06/11 07:50:33;;;;;;;5.82;5.20;;;21.30;57.10;;;;;;5082595;28;20208;-91
2021/06/11 07:53:00;;;;;;;5.07;4.57;;;21.30;57.10;;;;;;5077158;28;20207;-89
2021/06/11 07:55:26;;;;;;;5.93;5.07;;;21.50;59.30;;;;;;5090242;28;20231;-85
2021/06/11 07:57:53;;;;;;;5.50;5.05;;;21.70;59.50;;;;;;5099506;28;20695;-90
2021/06/11 08:00:20;;;;;;;5.72;5.18;;;21.90;56.40;;;;;;5087459;28;20209;-90
2021/06/11 08:02:49;;;;;;;5.78;4.80;;;21.60;53.60;;;;;;5078646;28;20204;-89
2021/06/11 08:05:15;;;;;;;5.57;4.60;;;21.80;56.90;;;;;;5090542;28;20676;-87
2021/06/11 08:07:41;;;;;;;4.93;4.53;;;22.00;54.90;;;;;;5099632;28;20201;-89
2021/06/11 08:10:09;;;;;;;5.65;5.15;;;22.20;54.20;;;;;;5090297;28;20198;-90
2021/06/11 08:12:35;;;;;;;5.70;5.15;;;22.50;51.30;;;;;;5090800;28;20220;-87
2021/06/11 08:15:05;;;;;;;5.47;4.95;;;22.80;48.80;;;;;;5099099;28;20243;-89
2021/06/11 08:17:31;;;;;;;5.03;4.45;;;24.10;44.40;;;;;;5092071;28;20240;-85
2021/06/11 08:19:59;;;;;;;4.40;3.90;;;25.60;39.50;;;;;;5094600;28;20254;-87
2021/06/11 08:22:26;;;;;;;4.47;4.07;;;27.50;37.80;;;;;;5092901;28;20252;-87
2021/06/11 08:24:52;;;;;;;4.43;4.03;;;28.80;30.60;;;;;;5084469;28;20221;-88
2021/06/11 08:27:18;;;;;;;4.72;4.32;;;29.20;29.30;;;;;;5093437;28;20224;-86
2021/06/11 08:29:45;;;;;;;4.22;3.60;;;28.60;30.00;;;;;;5086195;28;20203;-88
2021/06/11 08:32:11;;;;;;;6.25;5.10;;;29.40;29.60;;;;;;5090538;28;20219;-89
2021/06/11 08:34:39;;;;;;;4.55;4.07;;;29.40;27.50;;;;;;5093158;28;20208;-86
2021/06/11 08:37:09;;;;;;;5.15;4.75;;;30.90;25.60;;;;;;5092467;28;20249;-86
2021/06/11 08:39:47;;;;;;;4.95;4.22;;;31.20;21.80;;;;;;5086291;28;20200;-86
2021/06/11 08:42:14;;;;;;;5.18;4.78;;;30.30;23.70;;;;;;5078402;28;20220;-86
2021/06/11 08:44:43;;;;;;;5.05;4.50;;;28.70;26.80;;;;;;5087969;28;20199;-86
2021/06/11 08:47:09;;;;;;;4.55;4.03;;;28.10;29.70;;;;;;5079310;28;20231;-86
2021/06/11 08:49:36;;;;;;;5.75;4.35;;;29.10;27.00;;;;;;5082686;28;20664;-86
2021/06/11 08:52:03;;;;;;;6.00;4.32;;;29.20;24.30;;;;;;5083513;28;20216;-86
2021/06/11 08:54:31;;;;;;;4.55;4.13;;;28.20;26.50;;;;;;5082010;28;20225;-87
2021/06/11 08:56:57;;;;;;;4.10;3.70;;;27.40;30.30;;;;;;5090245;28;20219;-85
2021/06/11 08:59:24;;;;;;;4.65;4.05;;;27.70;30.10;;;;;;5096593;28;20698;-85
2021/06/11 09:01:50;;;;;;;4.40;3.78;;;27.50;29.50;;;;;;5088131;28;20231;-85
2021/06/11 09:04:41;;;;;;;4.65;4.25;;;28.40;29.30;;;;;;5091393;28;20196;-86
2021/06/11 09:07:26;;;;;;;4.47;4.07;;;30.50;25.90;;;;;;5079495;28;20230;-87
2021/06/11 09:09:58;;;;;;;5.35;4.47;;;33.00;19.50;;;;;;5085333;28;20985;-86
2021/06/11 09:12:36;;;;;;;5.93;4.32;;;33.00;18.10;;;;;;5088046;28;20222;-86
2021/06/11 09:15:08;;;;;;;6.22;4.18;;;32.00;19.00;;;;;;5093430;28;20200;-86
2021/06/11 09:17:41;;;;;;;5.57;3.83;;;30.50;20.40;;;;;;5083704;28;20216;-87
2021/06/11 09:20:14;;;;;;;4.40;4.00;;;29.10;23.90;;;;;;5082594;28;20250;-86
2021/06/11 09:22:50;;;;;;;4.95;4.20;;;28.00;26.80;;;;;;5075270;28;20224;-86
2021/06/11 09:25:35;;;;;;;5.25;4.72;;;26.80;28.70;;;;;;5086745;28;20223;-86
2021/06/11 09:28:04;;;;;;;5.38;4.10;;;25.50;30.70;;;;;;5076086;28;20236;-86
2021/06/11 09:30:33;;;;;;;8.57;4.10;;;24.80;30.80;;;;;;5086227;28;20233;-86
2021/06/11 09:33:02;;;;;;;5.55;4.00;;;24.40;34.60;;;;;;5085912;28;20677;-85
2021/06/11 09:35:36;;;;;;;4.78;4.30;;;24.10;35.50;;;;;;5080202;28;20200;-87
2021/06/11 09:38:15;;;;;;;7.05;3.85;;;25.10;32.90;;;;;;5085349;28;20192;-86
2021/06/11 09:40:45;;;;;;;7.05;4.30;;;27.00;29.70;;;;;;5084223;28;20224;-87
2021/06/11 09:43:12;;;;;;;4.57;4.18;;;29.20;24.70;;;;;;5084776;28;20199;-87
2021/06/11 09:45:39;;;;;;;4.82;4.43;;;30.80;22.30;;;;;;5084000;28;20235;-87
2021/06/11 09:48:20;;;;;;;7.10;4.80;;;32.40;18.50;;;;;;5077290;28;20651;-88
2021/06/11 09:50:51;;;;;;;5.85;5.22;;;33.70;18.40;;;;;;5080571;28;20232;-87
2021/06/11 09:53:22;;;;;;;5.60;5.10;;;34.30;17.60;;;;;;5080990;28;20237;-89
2021/06/11 09:55:53;;;;;;;5.20;4.72;;;33.20;18.20;;;;;;5085846;28;20224;-88
2021/06/11 09:58:21;;;;;;;5.57;5.05;;;34.50;16.50;;;;;;5086715;28;20224;-90
2021/06/11 10:00:52;;;;;;;5.38;4.93;;;33.50;15.90;;;;;;5085301;28;20224;-90
2021/06/11 10:03:24;;;;;;;5.80;5.30;;;32.10;17.60;;;;;;5086408;28;20200;-90
2021/06/11 10:05:52;;;;;;;5.50;4.97;;;31.20;18.00;;;;;;5080212;28;20240;-91
2021/06/11 10:08:20;;;;;;;4.95;4.55;;;28.80;22.90;;;;;;5080707;28;20266;-90
2021/06/11 10:10:48;;;;;;;5.05;4.55;;;28.60;26.70;;;;;;5083566;28;20247;-90
2021/06/11 10:13:17;;;;;;;6.05;4.82;;;28.00;28.80;;;;;;5082230;28;20196;-89
2021/06/11 10:15:45;;;;;;;5.88;4.68;;;27.30;28.00;;;;;;5088294;28;20299;-91
2021/06/11 10:18:15;;;;;;;4.47;4.10;;;26.90;28.20;;;;;;5072598;28;20242;-90
2021/06/11 10:20:43;;;;;;;5.22;4.75;;;26.80;31.50;;;;;;5089653;28;20273;-89
2021/06/11 10:23:10;;;;;;;5.68;4.10;;;28.00;29.40;;;;;;5086814;28;20196;-89
2021/06/11 10:25:40;;;;;;;5.55;5.05;;;29.00;25.30;;;;;;5078329;28;20579;-90
2021/06/11 10:28:11;;;;;;;5.32;4.85;;;28.40;25.90;;;;;;5087440;28;20197;-88
2021/06/11 10:30:40;;;;;;;5.38;4.47;;;27.40;26.60;;;;;;5083996;28;20228;-89
2021/06/11 10:33:07;;;;;;;4.75;4.35;;;27.00;29.20;;;;;;5083868;28;20204;-87
2021/06/11 10:35:50;;;;;;;6.10;5.07;;;27.70;29.50;;;;;;5087895;28;20647;-88
2021/06/11 10:38:33;;;;;;;4.35;4.05;;;27.30;27.30;;;;;;5092434;28;20199;-87
2021/06/11 10:41:01;;;;;;;4.90;4.18;;;27.00;29.50;;;;;;5087706;28;20650;-86
2021/06/11 10:43:34;;;;;;;4.53;4.10;;;26.50;27.30;;;;;;5092798;28;20196;-88
2021/06/11 10:46:02;;;;;;;4.75;4.35;;;26.10;33.50;;;;;;5100751;28;20464;-85
2021/06/11 10:49:00;;;;;;;11.27;5.15;;;26.80;28.40;;;;;;5092973;28;20612;-90
2021/06/11 10:51:36;;;;;;;4.80;4.40;;;27.40;25.40;;;;;;5086492;28;20223;-88
2021/06/11 10:54:26;;;;;;;3.88;3.58;;;28.90;27.40;;;;;;5090357;28;20558;-87
2021/06/11 10:57:25;;;;;;;4.55;4.15;;;30.20;26.50;;;;;;5078672;28;20232;-87
2021/06/11 10:59:51;;;;;;;4.10;3.80;;;31.10;19.70;;;;;;5084400;28;20207;-87
2021/06/11 11:02:19;;;;;;;4.55;4.10;;;31.00;20.20;;;;;;5093959;28;20215;-88
2021/06/11 11:04:48;;;;;;;4.80;4.45;;;30.50;23.10;;;;;;5090292;28;20200;-87
2021/06/11 11:07:32;;;;;;;6.60;4.20;;;29.60;23.70;;;;;;5090067;28;20220;-86
2021/06/11 11:10:00;;;;;;;4.78;4.20;;;28.40;24.10;;;;;;5088006;28;20223;-87
2021/06/11 11:12:58;;;;;;;4.43;4.00;;;27.40;26.80;;;;;;5093112;28;20216;-87
2021/06/11 11:15:38;;;;;;;6.38;4.22;;;26.50;28.10;;;;;;5092927;28;20196;-85
2021/06/11 11:18:14;;;;;;;5.63;3.80;;;26.10;30.20;;;;;;5100405;28;20198;-87
2021/06/11 11:21:26;;;;;;;5.68;5.00;;;25.70;31.90;;;;;;5092856;28;20223;-87
2021/06/11 11:24:04;;;;;;;6.35;5.07;;;25.70;32.10;;;;;;5096289;28;20541;-87
2021/06/11 11:26:42;;;;;;;5.18;4.30;;;25.40;30.90;;;;;;5087841;28;20698;-86
2021/06/11 11:29:18;;;;;;;4.63;4.28;;;26.00;32.10;;;;;;5085848;28;20192;-83
2021/06/11 11:31:47;;;;;;;5.82;5.30;;;25.90;31.20;;;;;;5085795;28;20266;-83
2021/06/11 11:34:16;;;;;;;5.43;4.93;;;25.60;31.90;;;;;;5098249;28;20204;-87
2021/06/11 11:36:42;;;;;;;5.07;4.60;;;24.60;35.90;;;;;;5098113;28;20249;-87
2021/06/11 11:39:11;;;;;;;4.82;4.20;;;24.30;35.70;;;;;;5098558;28;20197;-85
2021/06/11 11:41:38;;;;;;;4.93;4.50;;;24.30;37.30;;;;;;5099029;28;20221;-85
2021/06/11 11:44:05;;;;;;;4.57;4.18;;;24.20;35.60;;;;;;5098275;28;20200;-86
2021/06/11 11:46:32;;;;;;;6.22;4.78;;;24.50;35.80;;;;;;5100342;28;20242;-84
2021/06/11 11:48:58;;;;;;;5.78;4.90;;;25.10;36.30;;;;;;5091003;28;20201;-84
2021/06/11 11:51:27;;;;;;;5.72;5.22;;;25.70;30.10;;;;;;5097530;28;20223;-86
2021/06/11 11:53:53;;;;;;;5.60;5.10;;;25.80;29.60;;;;;;5096746;28;20231;-84
2021/06/11 11:56:19;;;;;;;5.28;4.78;;;25.70;30.90;;;;;;5092813;28;20231;-85
2021/06/11 11:58:46;;;;;;;5.00;4.38;;;26.20;33.10;;;;;;5096729;28;20309;-82
2021/06/11 12:01:12;;;;;;;6.43;4.68;;;26.10;31.30;;;;;;5095898;28;20300;-84
2021/06/11 12:03:39;;;;;;;5.38;4.88;;;25.90;34.90;;;;;;5095434;28;20528;-85
2021/06/11 12:06:05;;;;;;;5.30;4.80;;;25.50;32.30;;;;;;5093477;28;20221;-88
2021/06/11 12:08:33;;;;;;;4.97;4.57;;;24.90;33.50;;;;;;5101273;28;20199;-84
2021/06/11 12:11:02;;;;;;;5.93;4.10;;;24.60;35.90;;;;;;5109068;28;20239;-86
2021/06/11 12:13:28;;;;;;;5.43;4.50;;;24.40;35.80;;;;;;5095948;28;20200;-87
2021/06/11 12:15:55;;;;;;;6.70;5.65;;;24.10;35.50;;;;;;5092999;28;20229;-86
2021/06/11 12:18:22;;;;;;;5.80;3.97;;;24.20;33.70;;;;;;5099430;28;20193;-88
2021/06/11 12:20:48;;;;;;;4.38;4.03;;;24.30;35.70;;;;;;5100060;28;20232;-85
2021/06/11 12:23:14;;;;;;;4.00;3.58;;;24.50;35.80;;;;;;5097275;28;20564;-87
2021/06/11 12:25:42;;;;;;;5.55;3.85;;;24.70;36.00;;;;;;5101824;28;20228;-85
2021/06/11 12:28:09;;;;;;;4.40;4.00;;;24.90;35.30;;;;;;5088196;28;20895;-85
2021/06/11 12:30:37;;;;;;;5.50;4.00;;;24.80;35.50;;;;;;5094114;28;20225;-85
2021/06/11 12:33:04;;;;;;;4.97;4.00;;;24.90;36.20;;;;;;5089122;28;20197;-88
2021/06/11 12:35:31;;;;;;;4.53;3.95;;;25.10;34.20;;;;;;5089383;28;20208;-85
2021/06/11 12:37:59;;;;;;;4.78;4.38;;;25.50;31.60;;;;;;5087790;28;20201;-87
2021/06/11 12:40:26;;;;;;;5.05;4.55;;;25.90;31.40;;;;;;5089768;28;20220;-84
2021/06/11 12:43:03;;;;;;;4.10;3.80;;;26.00;30.00;;;;;;5087922;28;20213;-83
2021/06/11 12:45:30;;;;;;;5.88;3.53;;;25.60;31.80;;;;;;5087132;28;20219;-85
2021/06/11 12:47:56;;;;;;;5.47;3.70;;;25.20;32.00;;;;;;5087275;28;20200;-85
2021/06/11 12:50:23;;;;;;;4.72;3.78;;;24.80;30.90;;;;;;5088119;28;20200;-85
2021/06/11 12:55:15;;;;;;;9.88;3.83;;;24.80;34.00;;;;;;5121024;22;20770;-85
2021/06/11 12:57:42;;;;;;;4.85;4.13;;;25.20;29.90;;;;;;5069732;28;20276;-86
2021/06/11 13:00:11;;;;;;;5.15;3.80;;;25.50;30.60;;;;;;5065763;28;20194;-87
2021/06/11 13:02:38;;;;;;;3.67;3.38;;;25.80;30.90;;;;;;5067733;28;20213;-86
2021/06/11 13:05:06;;;;;;;10.13;4.07;;;25.90;30.00;;;;;;5071221;28;20198;-83
2021/06/11 13:07:32;;;;;;;6.22;3.67;;;26.30;30.60;;;;;;5065550;28;20745;-83
2021/06/11 13:09:59;;;;;;;3.53;3.22;;;26.10;29.00;;;;;;5076295;28;21459;-85
2021/06/11 13:12:25;;;;;;;6.55;3.97;;;26.20;28.10;;;;;;5068084;28;20217;-81
2021/06/11 13:14:52;;;;;;;4.18;3.50;;;26.30;28.30;;;;;;5072790;28;20193;-85
2021/06/11 13:17:19;;;;;;;4.18;3.80;;;26.50;27.00;;;;;;5069435;28;20227;-85